Amherst, Wisconsin
Current Conditions -  °F | °C
As of 12:15 AM on Saturday 01 Nov 2014 (Local Time) from KSTE Reporting Station
Clear Clear  
Wind Chill: -6°   Ceiling: Unl
Heat Index: -6°   Visibility: 10mi
Dew Point: -9°   Wind: 0mph
Humidity: 82%   Direction: NA
Pressure: 30.45"   Gusts: NA
Location:  44.45°N, 89.28°W
Report Text: KSTE 010515Z AUTO 00000KT 10SM CLR M06/M09 A3045 RMK AO2 T10601086
Loading
Personal Weather Stations






























Interactive Weather Map
Tropical Storm Tracking
New forecast layout! Learn more

10-Day Weather Forecast

Advertisements
Track Severe Weather on mobile